createdAt,value
2023-05-12T00:02:13.571Z,101152.63
2023-05-12T00:04:40.416Z,101146.66
2023-05-12T00:07:07.339Z,101151.00
2023-05-12T00:09:34.126Z,101159.56
2023-05-12T00:12:02.369Z,101155.28
2023-05-12T00:14:29.225Z,101152.69
2023-05-12T00:16:55.733Z,101156.16
2023-05-12T00:19:22.255Z,101151.88
2023-05-12T00:21:49.089Z,101152.75
2023-05-12T00:24:15.608Z,101156.19
2023-05-12T00:26:42.290Z,101149.31
2023-05-12T00:29:08.752Z,101156.22
2023-05-12T00:31:35.348Z,101156.22
2023-05-12T00:34:02.395Z,101151.94
2023-05-12T00:36:28.849Z,101154.50
2023-05-12T00:38:55.697Z,101157.94
2023-05-12T00:41:22.265Z,101152.78
2023-05-12T00:43:48.982Z,101153.66
2023-05-12T00:46:15.809Z,101156.22
2023-05-12T00:48:42.691Z,101154.50
2023-05-12T00:51:10.104Z,101154.50
2023-05-12T00:53:48.297Z,101157.94
2023-05-12T00:56:19.792Z,101157.94
2023-05-12T00:58:46.635Z,101155.38
2023-05-12T01:01:13.470Z,101158.78
2023-05-12T01:03:40.268Z,101151.94
2023-05-12T01:06:14.614Z,101170.78
2023-05-12T01:08:41.182Z,101158.81
2023-05-12T01:11:08.007Z,101156.19
2023-05-12T01:13:34.746Z,101158.78
2023-05-12T01:16:02.870Z,101162.22
2023-05-12T01:18:31.862Z,101165.66
2023-05-12T01:21:00.549Z,101164.78
2023-05-12T01:23:33.888Z,101169.91
2023-05-12T01:26:07.265Z,101165.63
2023-05-12T01:28:35.543Z,101162.19
2023-05-12T01:31:03.642Z,101164.78
2023-05-12T01:33:30.139Z,101168.19
2023-05-12T01:35:56.841Z,101159.63
2023-05-12T01:38:24.878Z,101170.75
2023-05-12T01:40:51.594Z,101160.44
2023-05-12T01:43:18.945Z,101170.72
2023-05-12T01:45:49.106Z,101173.28
2023-05-12T01:48:15.716Z,101169.84
2023-05-12T01:50:42.138Z,101163.00
2023-05-12T01:53:08.874Z,101172.41
2023-05-12T01:55:35.332Z,101172.41
2023-05-12T01:58:01.848Z,101170.59
2023-05-12T02:00:31.369Z,101173.19
2023-05-12T02:02:58.112Z,101168.88
2023-05-12T02:05:24.928Z,101173.97
2023-05-12T02:07:51.778Z,101175.69
2023-05-12T02:10:18.675Z,101177.38
2023-05-12T02:12:45.675Z,101176.53
2023-05-12T02:15:12.167Z,101188.47
2023-05-12T02:17:38.903Z,101188.47
2023-05-12T02:20:06.091Z,101188.38
2023-05-12T02:22:32.654Z,101191.81
2023-05-12T02:24:59.365Z,101192.63
2023-05-12T02:27:25.938Z,101195.19
2023-05-12T02:29:52.789Z,101196.03
2023-05-12T02:32:19.531Z,101196.88
2023-05-12T02:34:48.493Z,101198.59
2023-05-12T02:37:15.248Z,101202.88
2023-05-12T02:39:41.724Z,101201.16
2023-05-12T02:42:08.660Z,101198.53
2023-05-12T02:44:35.301Z,101201.91
2023-05-12T02:47:01.867Z,101200.16
2023-05-12T02:49:28.605Z,101202.75
2023-05-12T02:51:55.353Z,101196.66
2023-05-12T02:54:21.810Z,101196.72
2023-05-12T02:56:49.413Z,101196.72
2023-05-12T02:59:16.112Z,101200.06
2023-05-12T03:01:42.692Z,101195.72
2023-05-12T03:04:09.381Z,101195.66
2023-05-12T03:06:36.168Z,101188.81
2023-05-12T03:09:02.973Z,101194.81
2023-05-12T03:11:29.829Z,101197.31
2023-05-12T03:13:56.381Z,101198.97
2023-05-12T03:16:22.948Z,101197.28
2023-05-12T03:18:49.702Z,101201.47
2023-05-12T03:21:16.276Z,101204.00
2023-05-12T03:23:43.205Z,101198.03
2023-05-12T03:26:10.353Z,101198.94
2023-05-12T03:28:36.936Z,101205.72
2023-05-12T03:31:03.658Z,101205.69
2023-05-12T03:33:30.815Z,101204.81
2023-05-12T03:35:57.557Z,101204.78
2023-05-12T03:38:24.251Z,101200.50
2023-05-12T03:40:50.697Z,101209.88
2023-05-12T03:43:17.440Z,101214.97
2023-05-12T03:45:44.259Z,101214.19
2023-05-12T03:48:10.997Z,101218.44
2023-05-12T03:50:37.485Z,101218.41
2023-05-12T03:53:04.159Z,101217.53
2023-05-12T03:55:30.661Z,101217.56
2023-05-12T03:57:57.353Z,101215.00
2023-05-12T04:00:24.211Z,101217.53
2023-05-12T04:02:50.743Z,101221.81
2023-05-12T04:05:17.790Z,101219.31
2023-05-12T04:07:44.757Z,101223.56
2023-05-12T04:10:11.581Z,101213.38
2023-05-12T04:12:38.318Z,101226.97
2023-05-12T04:15:05.938Z,101228.72
2023-05-12T04:17:32.809Z,101225.31
2023-05-12T04:19:59.862Z,101223.66
2023-05-12T04:22:26.970Z,101227.97
2023-05-12T04:24:53.726Z,101229.72
2023-05-12T04:27:22.910Z,101231.47
2023-05-12T04:29:49.423Z,101235.81
2023-05-12T04:32:16.179Z,101239.31
2023-05-12T04:34:42.946Z,101238.47
2023-05-12T04:37:09.468Z,101240.19
2023-05-12T04:39:37.792Z,101242.00
2023-05-12T04:42:04.514Z,101241.22
2023-05-12T04:44:30.957Z,101239.56
2023-05-12T04:46:57.452Z,101243.91
2023-05-12T04:49:24.206Z,101242.28
2023-05-12T04:51:50.634Z,101240.63
2023-05-12T04:54:17.165Z,101240.69
2023-05-12T04:56:47.138Z,101246.72
2023-05-12T04:59:14.234Z,101249.34
2023-05-12T05:01:41.058Z,101252.88
2023-05-12T05:04:07.815Z,101252.91
2023-05-12T05:06:34.582Z,101255.53
2023-05-12T05:09:01.297Z,101253.81
2023-05-12T05:11:28.039Z,101260.72
2023-05-12T05:13:54.756Z,101266.75
2023-05-12T05:16:21.310Z,101266.75
2023-05-12T05:18:47.896Z,101267.63
2023-05-12T05:21:15.116Z,101268.47
2023-05-12T05:23:42.173Z,101267.63
2023-05-12T05:26:09.159Z,101272.78
2023-05-12T05:28:36.125Z,101266.81
2023-05-12T05:31:02.743Z,101271.97
2023-05-12T05:33:29.238Z,101275.41
2023-05-12T05:35:55.983Z,101270.25
2023-05-12T05:38:22.798Z,101274.53
2023-05-12T05:40:53.466Z,101271.97
2023-05-12T05:43:21.177Z,101273.66
2023-05-12T05:45:47.842Z,101273.69
2023-05-12T05:48:14.723Z,101279.69
2023-05-12T05:50:41.214Z,101274.53
2023-05-12T05:53:07.770Z,101281.41
2023-05-12T05:55:35.733Z,101280.50
2023-05-12T05:58:03.676Z,101287.34
2023-05-12T06:00:30.459Z,101283.03
2023-05-12T06:02:57.324Z,101295.88
2023-05-12T06:05:24.162Z,101294.16
2023-05-12T06:07:51.017Z,101290.69
2023-05-12T06:10:17.592Z,101291.50
2023-05-12T06:12:44.670Z,101288.88
2023-05-12T06:15:11.454Z,101295.69
2023-05-12T06:17:38.668Z,101297.41
2023-05-12T06:20:08.834Z,101288.75
2023-05-12T06:22:36.575Z,101295.59
2023-05-12T06:25:03.359Z,101301.56
2023-05-12T06:27:30.092Z,101302.41
2023-05-12T06:29:58.361Z,101304.06
2023-05-12T06:32:24.924Z,101310.88
2023-05-12T06:34:52.396Z,101308.22
2023-05-12T06:37:19.073Z,101310.78
2023-05-12T06:39:45.509Z,101311.56
2023-05-12T06:42:12.322Z,101311.50
2023-05-12T06:44:41.763Z,101307.09
2023-05-12T06:47:09.305Z,101313.97
2023-05-12T06:49:35.851Z,101314.78
2023-05-12T06:52:03.382Z,101312.91
2023-05-12T06:54:30.184Z,101314.56
2023-05-12T06:56:56.952Z,101308.53
2023-05-12T06:59:23.967Z,101306.63
2023-05-12T07:01:50.363Z,101308.28
2023-05-12T07:04:17.277Z,101308.22
2023-05-12T07:06:43.774Z,101309.81
2023-05-12T07:09:10.334Z,101302.06
2023-05-12T07:11:38.239Z,101311.41
2023-05-12T07:14:04.990Z,101303.47
2023-05-12T07:16:31.792Z,101316.28
2023-05-12T07:18:58.287Z,101311.94
2023-05-12T07:21:25.055Z,101311.63
2023-05-12T07:23:51.867Z,101310.66
2023-05-12T07:26:19.079Z,101313.09
2023-05-12T07:28:45.562Z,101315.56
2023-05-12T07:31:12.302Z,101312.00
2023-05-12T07:33:39.002Z,101314.34
2023-05-12T07:36:06.048Z,101314.19
2023-05-12T07:38:32.609Z,101312.41
2023-05-12T07:41:00.492Z,101316.28
2023-05-12T07:43:27.580Z,101315.28
2023-05-12T07:45:55.889Z,101309.16
2023-05-12T07:48:23.908Z,101320.16
2023-05-12T07:50:50.383Z,101315.53
2023-05-12T07:53:16.813Z,101313.59
2023-05-12T07:55:43.554Z,101320.16
2023-05-12T07:58:10.330Z,101317.41
2023-05-12T08:00:37.135Z,101317.03
2023-05-12T08:03:04.834Z,101306.56
2023-05-12T08:05:32.121Z,101313.13
2023-05-12T08:07:58.602Z,101305.13
2023-05-12T08:10:25.608Z,101311.91
2023-05-12T08:12:52.395Z,101312.31
2023-05-12T08:15:18.977Z,101315.44
2023-05-12T08:17:45.715Z,101306.81
2023-05-12T08:20:12.287Z,101311.75
2023-05-12T08:22:39.030Z,101305.94
2023-05-12T08:25:05.958Z,101309.19
2023-05-12T08:27:32.477Z,101313.34
2023-05-12T08:29:59.205Z,101301.72
2023-05-12T08:32:25.996Z,101309.16
2023-05-12T08:34:52.779Z,101310.41
2023-05-12T08:37:19.542Z,101307.00
2023-05-12T08:39:46.340Z,101319.03
2023-05-12T08:42:27.527Z,101319.00
2023-05-12T08:44:54.323Z,101312.19
2023-05-12T08:47:22.235Z,101314.34
2023-05-12T08:50:03.674Z,101320.38
2023-05-12T08:52:33.178Z,101318.09
2023-05-12T08:55:01.075Z,101313.59
2023-05-12T08:57:30.133Z,101305.78
2023-05-12T08:59:57.800Z,101308.56
2023-05-12T09:02:24.691Z,101306.41
2023-05-12T09:04:52.601Z,101306.66
2023-05-12T09:07:19.820Z,101312.00
2023-05-12T09:09:48.799Z,101309.41
2023-05-12T09:12:18.465Z,101310.41
2023-05-12T09:14:46.432Z,101311.16
2023-05-12T09:17:13.730Z,101307.84
2023-05-12T09:19:40.251Z,101311.81
2023-05-12T09:22:06.960Z,101310.03
2023-05-12T09:24:37.032Z,101306.75
2023-05-12T09:27:03.928Z,101302.72
2023-05-12T09:29:34.352Z,101314.56
2023-05-12T09:32:06.490Z,101296.78
2023-05-12T09:34:35.195Z,101303.34
2023-05-12T09:37:05.159Z,101286.94
2023-05-12T09:39:31.988Z,101294.66
2023-05-12T09:42:02.310Z,101294.28
2023-05-12T09:44:32.930Z,101287.41
2023-05-12T09:47:08.690Z,101297.22
2023-05-12T09:49:35.406Z,101290.50
2023-05-12T09:52:04.210Z,101296.13
2023-05-12T09:54:32.500Z,101293.94
2023-05-12T09:57:02.009Z,101302.16
2023-05-12T09:59:31.787Z,101301.81
2023-05-12T10:02:05.631Z,101297.72
2023-05-12T10:04:58.296Z,101293.19
2023-05-12T10:07:27.958Z,101286.09
2023-05-12T10:10:01.312Z,101282.25
2023-05-12T10:12:28.969Z,101290.06
2023-05-12T10:14:56.675Z,101290.06
2023-05-12T10:17:25.568Z,101292.13
2023-05-12T10:19:53.118Z,101292.69
2023-05-12T10:22:20.181Z,101292.84
2023-05-12T10:24:48.961Z,101283.59
2023-05-12T10:27:16.498Z,101290.81
2023-05-12T10:29:45.535Z,101282.38
2023-05-12T10:32:13.421Z,101275.03
2023-05-12T10:34:41.134Z,101284.59
2023-05-12T10:37:11.702Z,101274.38
2023-05-12T10:39:48.022Z,101278.53
2023-05-12T10:42:21.460Z,101279.81
2023-05-12T10:44:53.146Z,101287.59
2023-05-12T10:47:24.628Z,101280.00
2023-05-12T10:49:56.588Z,101269.34
2023-05-12T10:52:23.303Z,101280.81
2023-05-12T10:54:49.955Z,101275.53
2023-05-12T10:57:21.588Z,101273.69
2023-05-12T10:59:56.934Z,101270.28
2023-05-12T11:02:27.551Z,101260.03
2023-05-12T11:04:57.961Z,101269.59
2023-05-12T11:07:30.672Z,101276.44
2023-05-12T11:10:01.472Z,101275.03
2023-05-12T11:12:31.523Z,101267.81
2023-05-12T11:15:01.688Z,101264.88
2023-05-12T11:17:28.666Z,101261.03
2023-05-12T11:19:55.292Z,101266.28
2023-05-12T11:22:23.704Z,101255.31
2023-05-12T11:24:52.185Z,101257.53
2023-05-12T11:27:20.715Z,101261.59
2023-05-12T11:29:57.843Z,101260.09
2023-05-12T11:32:24.461Z,101259.75
2023-05-12T11:34:50.818Z,101268.09
2023-05-12T11:37:17.323Z,101261.94
2023-05-12T11:39:43.897Z,101260.22
2023-05-12T11:42:13.421Z,101265.47
2023-05-12T11:44:48.700Z,101263.91
2023-05-12T11:47:16.619Z,101270.78
2023-05-12T11:49:46.268Z,101282.53
2023-05-12T11:52:12.879Z,101275.13
2023-05-12T11:54:39.587Z,101274.56
2023-05-12T11:57:06.423Z,101273.88
2023-05-12T11:59:34.891Z,101270.34
2023-05-12T12:02:03.510Z,101268.09
2023-05-12T12:04:34.359Z,101278.97
2023-05-12T12:07:01.517Z,101278.47
2023-05-12T12:09:39.308Z,101278.59
2023-05-12T12:12:07.481Z,101277.44
2023-05-12T12:14:36.383Z,101283.19
2023-05-12T12:17:03.116Z,101281.31
2023-05-12T12:19:29.832Z,101295.97
2023-05-12T12:21:58.066Z,101275.56
2023-05-12T12:24:25.320Z,101271.13
2023-05-12T12:26:52.974Z,101277.25
2023-05-12T12:29:19.438Z,101282.97
2023-05-12T12:31:46.597Z,101270.97
2023-05-12T12:34:13.579Z,101258.41
2023-05-12T12:36:40.030Z,101274.91
2023-05-12T12:39:07.690Z,101274.78
2023-05-12T12:41:34.384Z,101279.97
2023-05-12T12:44:01.323Z,101273.44
2023-05-12T12:46:28.161Z,101268.41
2023-05-12T12:48:54.837Z,101275.84
2023-05-12T12:51:21.334Z,101256.09
2023-05-12T12:53:47.794Z,101275.56
2023-05-12T12:56:14.516Z,101280.38
2023-05-12T12:58:42.379Z,101278.69
2023-05-12T13:01:09.178Z,101262.66
2023-05-12T13:03:36.018Z,101262.53
2023-05-12T13:06:02.822Z,101266.19
2023-05-12T13:08:29.574Z,101269.34
2023-05-12T13:10:56.510Z,101267.25
2023-05-12T13:13:23.140Z,101258.16
2023-05-12T13:15:49.722Z,101262.28
2023-05-12T13:18:16.413Z,101263.16
2023-05-12T13:20:42.776Z,101251.03
2023-05-12T13:23:10.687Z,101262.31
2023-05-12T13:25:37.176Z,101254.06
2023-05-12T13:28:03.745Z,101261.22
2023-05-12T13:30:30.523Z,101259.03
2023-05-12T13:32:57.228Z,101265.97
2023-05-12T13:35:23.799Z,101253.81
2023-05-12T13:37:50.161Z,101262.47
2023-05-12T13:40:16.877Z,101252.44
2023-05-12T13:42:44.742Z,101246.19
2023-05-12T13:45:11.562Z,101250.72
2023-05-12T13:47:38.362Z,101254.78
2023-05-12T13:50:06.368Z,101252.13
2023-05-12T13:52:32.948Z,101257.31
2023-05-12T13:55:00.203Z,101248.03
2023-05-12T13:57:27.069Z,101247.25
2023-05-12T13:59:56.554Z,101255.41
2023-05-12T14:02:25.690Z,101252.59
2023-05-12T14:04:55.722Z,101244.41
2023-05-12T14:07:25.793Z,101249.09
2023-05-12T14:09:52.312Z,101236.41
2023-05-12T14:12:19.413Z,101227.91
2023-05-12T14:14:46.713Z,101242.59
2023-05-12T14:17:13.252Z,101242.91
2023-05-12T14:19:39.985Z,101237.09
2023-05-12T14:25:04.755Z,101242.19
2023-05-12T14:27:31.355Z,101249.47
2023-05-12T14:29:58.120Z,101243.72
2023-05-12T14:32:24.814Z,101241.69
2023-05-12T14:34:51.237Z,101251.72
2023-05-12T14:37:17.760Z,101239.56
2023-05-12T14:39:45.637Z,101245.63
2023-05-12T14:42:12.129Z,101237.38
2023-05-12T14:44:38.646Z,101242.13
2023-05-12T14:47:07.532Z,101238.94
2023-05-12T14:49:35.767Z,101238.94
2023-05-12T14:52:02.831Z,101240.13
2023-05-12T14:54:29.743Z,101242.06
2023-05-12T14:56:56.312Z,101241.97
2023-05-12T14:59:22.895Z,101249.34
2023-05-12T15:01:50.062Z,101248.19
2023-05-12T15:04:16.945Z,101246.34
2023-05-12T15:06:43.549Z,101249.25
2023-05-12T15:09:10.148Z,101236.38
2023-05-12T15:11:36.782Z,101233.19
2023-05-12T15:14:03.743Z,101237.88
2023-05-12T15:16:30.419Z,101230.56
2023-05-12T15:18:57.012Z,101248.94
2023-05-12T15:21:23.592Z,101243.25
2023-05-12T15:23:50.176Z,101253.66
2023-05-12T15:26:31.825Z,101253.97
2023-05-12T15:29:00.694Z,101254.38
2023-05-12T15:31:29.526Z,101241.69
2023-05-12T15:33:57.279Z,101242.16
2023-05-12T15:36:24.156Z,101240.25
2023-05-12T15:38:52.434Z,101248.09
2023-05-12T15:41:19.121Z,101243.84
2023-05-12T15:43:45.872Z,101250.19
2023-05-12T15:46:12.334Z,101241.75
2023-05-12T15:48:39.000Z,101238.47
2023-05-12T15:51:05.798Z,101238.50
2023-05-12T15:53:32.568Z,101239.78
2023-05-12T15:56:02.050Z,101235.66
2023-05-12T15:58:28.862Z,101235.72
2023-05-12T16:00:56.159Z,101238.63
2023-05-12T16:03:23.307Z,101235.16
2023-05-12T16:05:49.955Z,101235.09
2023-05-12T16:08:17.031Z,101240.31
2023-05-12T16:10:44.260Z,101236.31
2023-05-12T16:13:11.058Z,101239.28
2023-05-12T16:15:37.682Z,101241.59
2023-05-12T16:18:04.330Z,101234.91
2023-05-12T16:20:30.883Z,101231.78
2023-05-12T16:22:58.552Z,101230.63
2023-05-12T16:25:25.073Z,101235.44
2023-05-12T16:27:52.746Z,101226.78
2023-05-12T16:30:20.358Z,101228.31
2023-05-12T16:32:47.400Z,101231.44
2023-05-12T16:35:14.512Z,101229.84
2023-05-12T16:37:41.375Z,101227.31
2023-05-12T16:40:08.992Z,101231.47
2023-05-12T16:42:35.472Z,101231.63
2023-05-12T16:45:02.287Z,101230.16
2023-05-12T16:47:28.710Z,101233.88
2023-05-12T16:49:55.718Z,101237.28
2023-05-12T16:52:22.515Z,101228.84
2023-05-12T16:54:48.835Z,101229.97
2023-05-12T16:57:15.343Z,101240.66
2023-05-12T16:59:42.129Z,101237.28
2023-05-12T17:02:08.961Z,101238.06
2023-05-12T17:04:35.750Z,101237.66
2023-05-12T17:07:02.454Z,101240.44
2023-05-12T17:09:29.329Z,101243.03
2023-05-12T17:11:55.859Z,101245.69
2023-05-12T17:14:22.519Z,101249.06
2023-05-12T17:16:48.935Z,101249.38
2023-05-12T17:19:15.510Z,101246.16
2023-05-12T17:21:42.213Z,101249.81
2023-05-12T17:24:09.015Z,101241.44
2023-05-12T17:26:35.587Z,101249.28
2023-05-12T17:29:02.589Z,101252.19
2023-05-12T17:31:29.332Z,101251.56
2023-05-12T17:33:55.816Z,101261.47
2023-05-12T17:36:22.357Z,101257.34
2023-05-12T17:38:50.848Z,101260.88
2023-05-12T17:41:18.480Z,101256.94
2023-05-12T17:43:45.253Z,101261.38
2023-05-12T17:46:12.222Z,101258.09
2023-05-12T17:48:39.026Z,101261.69
2023-05-12T17:51:05.652Z,101267.97
2023-05-12T17:53:33.193Z,101269.06
2023-05-12T17:56:00.357Z,101276.16
2023-05-12T17:58:27.432Z,101263.31
2023-05-12T18:00:54.453Z,101279.19
2023-05-12T18:03:21.319Z,101278.38
2023-05-12T18:05:48.353Z,101273.41
2023-05-12T18:08:16.259Z,101285.59
2023-05-12T18:10:43.384Z,101283.34
2023-05-12T18:13:10.762Z,101285.25
2023-05-12T18:15:37.912Z,101281.97
2023-05-12T18:18:05.044Z,101285.72
2023-05-12T18:20:35.672Z,101287.47
2023-05-12T18:23:02.414Z,101291.94
2023-05-12T18:25:29.011Z,101287.88
2023-05-12T18:27:55.876Z,101292.38
2023-05-12T18:30:25.794Z,101295.06
2023-05-12T18:32:54.114Z,101296.97
2023-05-12T18:35:20.900Z,101302.31
2023-05-12T18:37:47.487Z,101299.81
2023-05-12T18:40:14.217Z,101306.06
2023-05-12T18:42:41.269Z,101314.06
2023-05-12T18:45:08.476Z,101313.34
2023-05-12T18:47:35.330Z,101315.19
2023-05-12T18:50:02.068Z,101318.72
2023-05-12T18:52:28.833Z,101321.34
2023-05-12T18:54:55.251Z,101317.38
2023-05-12T18:57:24.864Z,101317.56
2023-05-12T18:59:51.754Z,101327.09
2023-05-12T19:02:18.427Z,101331.63
2023-05-12T19:04:45.094Z,101335.31
2023-05-12T19:07:12.222Z,101334.56
2023-05-12T19:09:38.855Z,101345.84
2023-05-12T19:12:06.188Z,101340.81
2023-05-12T19:14:32.998Z,101340.22
2023-05-12T19:16:59.463Z,101332.44
2023-05-12T19:19:28.531Z,101344.63
2023-05-12T19:21:56.145Z,101344.78
2023-05-12T19:24:25.945Z,101347.47
2023-05-12T19:26:53.091Z,101353.69
2023-05-12T19:29:19.688Z,101352.84
2023-05-12T19:31:46.565Z,101358.94
2023-05-12T19:34:13.199Z,101360.72
2023-05-12T19:36:39.979Z,101359.00
2023-05-12T19:39:06.644Z,101351.34
2023-05-12T19:41:39.371Z,101358.31
2023-05-12T19:44:06.022Z,101365.28
2023-05-12T19:46:33.045Z,101361.84
2023-05-12T19:49:00.298Z,101368.13
2023-05-12T19:51:27.092Z,101365.66
2023-05-12T19:53:53.684Z,101367.38
2023-05-12T19:56:20.670Z,101369.16
2023-05-12T19:58:47.230Z,101368.38
2023-05-12T20:01:13.939Z,101368.41
2023-05-12T20:03:41.723Z,101371.88
2023-05-12T20:06:10.300Z,101370.16
2023-05-12T20:08:37.109Z,101369.41
2023-05-12T20:11:03.866Z,101377.25
2023-05-12T20:13:31.592Z,101372.13
2023-05-12T20:16:00.747Z,101373.91
2023-05-12T20:18:27.369Z,101370.44
2023-05-12T20:20:54.446Z,101385.09
2023-05-12T20:23:21.434Z,101378.22
2023-05-12T20:25:48.033Z,101379.09
2023-05-12T20:28:14.633Z,101377.44
2023-05-12T20:30:41.355Z,101380.94
2023-05-12T20:33:08.230Z,101374.94
2023-05-12T20:35:34.769Z,101379.25
2023-05-12T20:38:01.347Z,101381.88
2023-05-12T20:40:28.864Z,101376.72
2023-05-12T20:42:55.667Z,101383.63
2023-05-12T20:45:23.274Z,101383.63
2023-05-12T20:47:50.233Z,101385.41
2023-05-12T20:50:16.775Z,101389.75
2023-05-12T20:52:43.361Z,101383.69
2023-05-12T20:55:10.048Z,101387.16
2023-05-12T20:57:36.848Z,101385.34
2023-05-12T21:00:03.579Z,101391.47
2023-05-12T21:02:30.522Z,101388.88
2023-05-12T21:04:57.373Z,101389.81
2023-05-12T21:07:24.196Z,101395.78
2023-05-12T21:09:50.817Z,101393.19
2023-05-12T21:12:17.226Z,101400.94
2023-05-12T21:14:45.233Z,101398.44
2023-05-12T21:17:12.331Z,101401.06
2023-05-12T21:19:40.268Z,101407.13
2023-05-12T21:22:07.958Z,101402.81
2023-05-12T21:24:35.186Z,101409.75
2023-05-12T21:27:02.099Z,101412.34
2023-05-12T21:29:28.721Z,101413.25
2023-05-12T21:31:57.335Z,101419.28
2023-05-12T21:34:24.318Z,101427.06
2023-05-12T21:36:50.838Z,101424.50
2023-05-12T21:39:17.425Z,101418.47
2023-05-12T21:41:44.503Z,101427.13
2023-05-12T21:44:11.565Z,101422.00
2023-05-12T21:46:38.623Z,101423.72
2023-05-12T21:49:05.229Z,101420.28
2023-05-12T21:51:32.005Z,101421.16
2023-05-12T21:53:59.894Z,101419.44
2023-05-12T21:56:26.685Z,101413.41
2023-05-12T21:58:53.440Z,101417.75
2023-05-12T22:01:20.182Z,101414.31
2023-05-12T22:03:47.130Z,101419.50
2023-05-12T22:06:13.901Z,101416.94
2023-05-12T22:08:40.451Z,101421.22
2023-05-12T22:11:07.222Z,101418.69
2023-05-12T22:13:33.770Z,101420.38
2023-05-12T22:16:00.555Z,101415.22
2023-05-12T22:18:27.127Z,101422.97
2023-05-12T22:20:53.732Z,101417.81
2023-05-12T22:23:20.451Z,101416.97
2023-05-12T22:25:47.156Z,101420.41
2023-05-12T22:28:13.876Z,101429.00
2023-05-12T22:30:40.426Z,101423.88
2023-05-12T22:33:07.231Z,101420.41
2023-05-12T22:35:33.925Z,101419.56
2023-05-12T22:38:00.768Z,101417.00
2023-05-12T22:40:27.599Z,101421.28
2023-05-12T22:42:56.280Z,101419.56
2023-05-12T22:45:23.053Z,101412.72
2023-05-12T22:47:49.999Z,101417.00
2023-05-12T22:50:16.344Z,101415.31
2023-05-12T22:52:43.185Z,101421.31
2023-05-12T22:55:10.346Z,101414.44
2023-05-12T22:57:37.092Z,101417.91
2023-05-12T23:00:05.788Z,101410.16
2023-05-12T23:02:32.618Z,101415.31
2023-05-12T23:04:59.516Z,101416.16
2023-05-12T23:07:26.566Z,101416.16
2023-05-12T23:09:53.145Z,101419.59
2023-05-12T23:12:19.883Z,101417.03
2023-05-12T23:14:46.406Z,101417.88
2023-05-12T23:17:13.136Z,101417.03
2023-05-12T23:19:39.826Z,101421.31
2023-05-12T23:22:06.863Z,101417.88
2023-05-12T23:24:33.194Z,101412.75
2023-05-12T23:26:59.710Z,101415.31
2023-05-12T23:29:26.177Z,101420.44
2023-05-12T23:31:52.758Z,101412.72
2023-05-12T23:34:19.290Z,101416.16
2023-05-12T23:36:45.909Z,101411.00
2023-05-12T23:39:12.831Z,101415.25
2023-05-12T23:41:39.651Z,101414.38
2023-05-12T23:44:06.256Z,101419.53
2023-05-12T23:46:32.849Z,101418.66
2023-05-12T23:49:00.622Z,101410.06
2023-05-12T23:51:27.839Z,101410.94
2023-05-12T23:53:54.432Z,101408.34
2023-05-12T23:56:21.512Z,101400.63
2023-05-12T23:58:48.084Z,101416.91
